In Rescue
 
Open Full Screen Window  High Contrast Mode
August 09, 2020 6:43 PM CDT
Weather Information
Wind Direction
  ---
Wind Speed
  00 kt (0 mph)
Wind Gust
  00 kt (0 mph)
Altimeter
29.81 in
Visibility
10 SM
Temperature
29° C
84° F
Dewpoint
24° C
75° F
Humidity
74%
1hr Rain Fall
00.00 in.
24hr Rain Fall
00.08 in.
Sky Condition
Broken @ 4,400 ft
Broken @ 3,700 ft
Scattered @ 2,900 ft
VFR

METAR KGYL 092343Z AUTO 00000KT 10SM SCT029 BKN037 BKN044 29/24 A2981 RMK AO2 T02930241

FAA Disclaimer: The data displayed is for advisory purposes only and is not to be used for flight planning or operations.